Time;durP1;ratioP1;P1;durP2;ratioP2;P2;SDS_P1;SDS_P2;PMS_P1;PMS_P2;Temp;Humidity;BMP_temperature;BMP_pressure;BME280_temperature;BME280_humidity;BME280_pressure;Samples;Min_cycle;Max_cycle;Signal;HPM_P1;HPM_P2
2023/04/22 16:04:43;;;;;;;3.87;2.73;;;;;;;14.89;84.91;99156.03;5170160;27;20364;-77
2023/04/22 16:07:10;;;;;;;4.47;2.60;;;;;;;14.76;86.66;99160.63;5169233;27;20267;-77
2023/04/22 16:09:36;;;;;;;4.53;2.57;;;;;;;14.67;88.04;99157.09;5169659;27;20215;-76
2023/04/22 16:12:04;;;;;;;7.77;2.60;;;;;;;14.67;88.81;99154.53;5168942;27;20204;-76
2023/04/22 16:14:30;;;;;;;6.47;3.07;;;;;;;14.31;89.10;99155.97;5168863;27;20306;-76
2023/04/22 16:16:58;;;;;;;3.90;2.60;;;;;;;14.14;91.40;99160.00;5164557;27;20264;-73
2023/04/22 16:19:24;;;;;;;5.83;2.70;;;;;;;14.01;92.17;99167.91;5148594;27;20224;-72
2023/04/22 16:21:54;;;;;;;6.67;2.80;;;;;;;14.07;92.69;99169.16;5148576;27;20635;-76
2023/04/22 16:24:21;;;;;;;5.90;3.17;;;;;;;14.23;92.22;99163.53;5147856;27;20231;-77
2023/04/22 16:26:48;;;;;;;4.57;2.50;;;;;;;14.03;92.51;99157.53;5148096;27;20652;-76
2023/04/22 16:29:14;;;;;;;4.87;2.80;;;;;;;14.25;91.40;99157.31;5148169;27;20216;-75
2023/04/22 16:31:41;;;;;;;8.13;3.20;;;;;;;14.42;90.51;99162.72;5148239;27;20200;-75
2023/04/22 16:34:08;;;;;;;3.23;2.33;;;;;;;14.49;89.52;99169.78;5148136;27;20216;-75
2023/04/22 16:36:35;;;;;;;4.00;2.67;;;;;;;14.44;89.69;99171.94;5148169;27;20196;-75
2023/04/22 16:39:03;;;;;;;2.93;1.90;;;;;;;14.45;90.07;99173.56;5148185;27;20196;-75
2023/04/22 16:41:30;;;;;;;3.73;2.60;;;;;;;14.39;91.29;99171.53;5148045;27;20192;-75
2023/04/22 16:43:57;;;;;;;5.07;2.97;;;;;;;14.27;92.35;99165.69;5148311;27;20235;-75
2023/04/22 16:46:24;;;;;;;5.27;2.40;;;;;;;14.23;92.28;99169.47;5148192;27;20257;-75
2023/04/22 16:48:51;;;;;;;5.60;2.40;;;;;;;14.25;93.07;99169.31;5148200;27;20203;-75
2023/04/22 16:51:17;;;;;;;4.90;2.50;;;;;;;14.23;92.69;99164.34;5148186;27;20576;-75
2023/04/22 16:53:45;;;;;;;5.37;3.00;;;;;;;14.16;91.68;99167.56;5148179;27;20203;-75
2023/04/22 16:56:13;;;;;;;5.17;2.63;;;;;;;14.13;92.35;99167.81;5147645;27;20201;-75
2023/04/22 16:58:39;;;;;;;4.67;2.80;;;;;;;14.17;93.23;99164.88;5147887;27;20290;-75
2023/04/22 17:01:06;;;;;;;3.90;2.83;;;;;;;14.14;93.21;99170.28;5147625;27;20220;-75
2023/04/22 17:03:33;;;;;;;5.37;2.57;;;;;;;14.01;94.14;99167.91;5147620;27;20960;-75
2023/04/22 17:06:00;;;;;;;4.33;2.43;;;;;;;13.92;93.10;99176.41;5147514;27;20215;-75
2023/04/22 17:08:27;;;;;;;4.50;2.93;;;;;;;13.84;92.93;99173.66;5147691;27;20248;-75
2023/04/22 17:10:54;;;;;;;3.33;2.27;;;;;;;13.74;93.52;99171.06;5147300;27;20677;-75
2023/04/22 17:13:22;;;;;;;5.00;2.57;;;;;;;13.64;92.65;99172.78;5147705;27;20209;-75
2023/04/22 17:15:49;;;;;;;4.10;2.70;;;;;;;13.68;91.87;99178.50;5135098;27;20322;-75
2023/04/22 17:18:16;;;;;;;4.30;2.17;;;;;;;13.65;93.49;99183.88;5134006;27;20234;-75
2023/04/22 17:20:43;;;;;;;3.97;2.60;;;;;;;13.63;93.44;99185.75;5133408;27;20762;-75
2023/04/22 17:23:10;;;;;;;3.03;2.30;;;;;;;13.64;93.23;99193.31;5133656;27;20227;-75
2023/04/22 17:25:36;;;;;;;4.60;2.40;;;;;;;13.56;94.21;99190.59;5133381;27;20242;-75
2023/04/22 17:28:03;;;;;;;3.93;2.77;;;;;;;13.59;93.04;99193.72;5133473;27;20227;-75
2023/04/22 17:30:31;;;;;;;5.50;2.67;;;;;;;13.60;92.87;99191.97;5133470;27;20222;-75
2023/04/22 17:32:58;;;;;;;3.90;2.30;;;;;;;13.58;93.62;99193.84;5133583;27;20200;-75
2023/04/22 17:35:25;;;;;;;4.50;2.80;;;;;;;13.64;92.85;99198.47;5133131;27;20245;-75
2023/04/22 17:37:52;;;;;;;4.27;2.27;;;;;;;13.61;92.83;99198.72;5133703;27;20200;-75
2023/04/22 17:40:20;;;;;;;3.83;2.30;;;;;;;13.55;93.83;99202.59;5133099;27;20610;-75
2023/04/22 17:42:47;;;;;;;3.90;2.60;;;;;;;13.55;93.79;99197.47;5133255;27;20290;-75
2023/04/22 17:45:14;;;;;;;3.17;2.17;;;;;;;13.53;93.85;99199.38;5133100;27;20659;-75
2023/04/22 17:47:43;;;;;;;3.63;2.90;;;;;;;13.53;94.27;99201.13;5133173;27;20645;-75
2023/04/22 17:50:10;;;;;;;3.87;2.80;;;;;;;13.51;93.81;99203.00;5132821;27;20230;-75
2023/04/22 17:52:37;;;;;;;3.47;2.40;;;;;;;13.50;95.36;99206.53;5132944;27;20615;-75
2023/04/22 17:55:04;;;;;;;3.27;2.27;;;;;;;13.45;97.51;99213.78;5132692;27;20255;-75
2023/04/22 17:57:31;;;;;;;3.67;2.33;;;;;;;13.40;97.68;99211.59;5133018;27;20213;-75
2023/04/22 17:59:58;;;;;;;4.33;2.30;;;;;;;13.33;97.48;99210.47;5133083;27;20223;-75
2023/04/22 18:02:25;;;;;;;3.87;2.20;;;;;;;13.33;97.00;99208.72;5132934;27;20646;-75
2023/04/22 18:04:53;;;;;;;3.00;2.13;;;;;;;13.30;97.82;99216.66;5132616;27;20243;-75
2023/04/22 18:07:20;;;;;;;4.50;2.80;;;;;;;13.25;99.27;99213.66;5132787;27;20203;-75
2023/04/22 18:09:48;;;;;;;5.33;2.57;;;;;;;13.23;100.00;99220.63;5132584;27;20228;-75
2023/04/22 18:12:15;;;;;;;6.50;2.80;;;;;;;13.18;100.00;99217.63;5132477;27;20759;-75
2023/04/22 18:14:42;;;;;;;3.60;2.60;;;;;;;13.14;100.00;99221.38;5132505;27;20222;-75
2023/04/22 18:17:09;;;;;;;3.83;3.00;;;;;;;13.12;99.38;99224.09;5132695;27;20213;-75
2023/04/22 18:19:35;;;;;;;3.37;2.53;;;;;;;13.11;100.00;99226.75;5132178;27;20231;-75
2023/04/22 18:22:04;;;;;;;4.03;2.60;;;;;;;13.01;100.00;99231.81;5132757;27;20587;-75
2023/04/22 18:24:30;;;;;;;5.10;2.50;;;;;;;12.96;100.00;99228.00;5132412;27;20238;-75
2023/04/22 18:26:57;;;;;;;4.30;3.03;;;;;;;12.94;100.00;99227.28;5131302;27;20689;-75
2023/04/22 18:29:24;;;;;;;3.77;2.67;;;;;;;12.97;100.00;99229.63;5132312;27;20855;-75
2023/04/22 18:31:51;;;;;;;4.23;2.47;;;;;;;12.90;100.00;99230.09;5132400;27;20252;-75
2023/04/22 18:34:18;;;;;;;3.10;2.20;;;;;;;12.88;100.00;99231.97;5132519;27;20218;-75
2023/04/22 18:36:45;;;;;;;5.13;2.87;;;;;;;12.87;100.00;99230.34;5131932;27;20205;-75
2023/04/22 18:39:13;;;;;;;4.37;2.63;;;;;;;12.84;100.00;99233.16;5132236;27;20262;-75
2023/04/22 18:41:41;;;;;;;5.53;2.77;;;;;;;12.84;100.00;99230.59;5132103;27;20203;-75
2023/04/22 18:44:08;;;;;;;5.00;3.20;;;;;;;12.80;100.00;99231.78;5131776;27;20234;-75
2023/04/22 18:46:35;;;;;;;6.80;2.77;;;;;;;12.79;100.00;99231.91;5131637;27;20676;-75
2023/04/22 18:49:02;;;;;;;7.40;2.50;;;;;;;12.80;100.00;99236.91;5132122;27;20665;-75
2023/04/22 18:51:29;;;;;;;4.67;3.07;;;;;;;12.86;100.00;99233.88;5131675;27;20196;-75
2023/04/22 18:53:57;;;;;;;4.73;2.70;;;;;;;12.78;100.00;99233.66;5131654;27;20293;-75
2023/04/22 18:56:25;;;;;;;3.37;2.33;;;;;;;12.82;100.00;99237.59;5131814;27;20206;-75
2023/04/22 18:58:52;;;;;;;3.50;2.47;;;;;;;12.80;100.00;99236.91;5131696;27;20284;-76
2023/04/22 19:01:19;;;;;;;5.20;2.83;;;;;;;12.74;100.00;99234.84;5131608;27;20204;-75
2023/04/22 19:03:46;;;;;;;6.07;2.40;;;;;;;12.74;100.00;99227.16;5131298;27;20234;-75
2023/04/22 19:06:12;;;;;;;4.73;2.50;;;;;;;12.78;100.00;99228.53;5131712;27;20202;-75
2023/04/22 19:08:39;;;;;;;4.57;2.80;;;;;;;12.87;100.00;99234.66;5131679;27;20342;-75
2023/04/22 19:11:06;;;;;;;3.60;2.50;;;;;;;12.84;100.00;99230.59;5131124;27;20225;-75
2023/04/22 19:13:35;;;;;;;5.70;3.00;;;;;;;12.79;100.00;99231.91;5131521;27;20209;-75
2023/04/22 19:16:01;;;;;;;3.60;2.47;;;;;;;12.87;100.00;99232.91;5131264;27;20221;-75
2023/04/22 19:18:28;;;;;;;3.67;2.67;;;;;;;12.84;100.00;99234.91;5131534;27;20668;-75
2023/04/22 19:20:55;;;;;;;6.03;2.87;;;;;;;12.81;100.00;99235.97;5131239;27;20326;-75
2023/04/22 19:23:22;;;;;;;8.03;2.90;;;;;;;12.80;100.00;99229.22;5131566;27;20205;-75
2023/04/22 19:25:50;;;;;;;3.30;2.60;;;;;;;12.75;100.00;99226.19;5131303;27;20241;-75
2023/04/22 19:28:17;;;;;;;4.47;2.60;;;;;;;12.77;100.00;99229.47;5131372;27;20199;-75
2023/04/22 19:30:46;;;;;;;4.13;3.00;;;;;;;12.73;100.00;99224.69;5130803;27;20214;-75
2023/04/22 19:33:14;;;;;;;3.77;2.60;;;;;;;12.64;100.00;99214.22;5131078;27;20533;-75
2023/04/22 19:35:41;;;;;;;4.07;2.87;;;;;;;12.67;100.00;99215.72;5130935;27;20224;-75
2023/04/22 19:38:09;;;;;;;4.10;2.87;;;;;;;12.61;100.00;99224.72;5130791;27;20202;-75
2023/04/22 19:40:36;;;;;;;6.70;3.17;;;;;;;12.56;100.00;99220.88;5130871;27;20474;-75
2023/04/22 19:43:03;;;;;;;4.90;2.90;;;;;;;12.56;100.00;99218.31;5131009;27;20197;-75
2023/04/22 19:45:29;;;;;;;3.70;2.70;;;;;;;12.62;100.00;99217.81;5130481;27;20793;-75
2023/04/22 19:47:58;;;;;;;7.23;3.00;;;;;;;12.68;100.00;99217.34;5131149;27;20224;-75
2023/04/22 19:50:25;;;;;;;5.07;2.80;;;;;;;12.60;100.00;99219.72;5130884;27;20221;-75
2023/04/22 19:53:02;;;;;;;5.87;3.00;;;;;;;12.49;100.00;99214.59;5131196;27;20201;-75
2023/04/22 19:55:28;;;;;;;6.83;3.10;;;;;;;12.54;100.00;99215.06;5130862;27;20216;-75
2023/04/22 19:57:56;;;;;;;9.17;2.73;;;;;;;12.57;100.00;99217.38;5131024;27;20208;-75
2023/04/22 20:00:24;;;;;;;5.50;3.03;;;;;;;12.53;100.00;99215.97;5130669;27;20302;-75
2023/04/22 20:02:52;;;;;;;3.43;2.37;;;;;;;12.55;100.00;99216.69;5130439;28;20474;-75
2023/04/22 20:05:21;;;;;;;4.37;3.00;;;;;;;12.62;100.00;99215.25;5130512;28;20593;-75
2023/04/22 20:07:49;;;;;;;5.53;2.33;;;;;;;12.60;100.00;99223.09;5131106;28;20201;-75
2023/04/22 20:10:16;;;;;;;7.20;2.60;;;;;;;12.59;100.00;99220.63;5130707;28;20278;-75
2023/04/22 20:12:44;;;;;;;5.83;3.10;;;;;;;12.51;100.00;99217.84;5130631;28;20282;-75
2023/04/22 20:15:12;;;;;;;3.50;2.47;;;;;;;12.58;100.00;99221.56;5130502;28;20235;-75
2023/04/22 20:17:40;;;;;;;5.13;3.03;;;;;;;12.55;100.00;99224.38;5130635;28;20236;-75
2023/04/22 20:20:12;;;;;;;5.37;3.07;;;;;;;12.50;100.00;99221.34;5130686;28;20580;-75
2023/04/22 20:22:41;;;;;;;4.90;2.60;;;;;;;12.55;100.00;99220.06;5130845;28;20206;-75
2023/04/22 20:25:12;;;;;;;9.13;3.40;;;;;;;12.53;100.00;99226.25;5130364;28;20233;-75
2023/04/22 20:27:39;;;;;;;4.50;2.53;;;;;;;12.57;100.00;99222.53;5130637;28;20201;-75
2023/04/22 20:30:07;;;;;;;4.17;2.87;;;;;;;12.51;100.00;99228.94;5130694;28;20663;-75
2023/04/22 20:32:35;;;;;;;3.37;2.67;;;;;;;12.54;100.00;99228.69;5130393;28;20197;-75
2023/04/22 20:35:02;;;;;;;2.47;2.07;;;;;;;12.58;100.00;99224.13;5130298;28;20221;-75
2023/04/22 20:37:30;;;;;;;4.70;2.57;;;;;;;12.55;100.00;99239.78;5130429;28;20205;-75
2023/04/22 20:40:00;;;;;;;4.80;2.73;;;;;;;12.56;100.00;99237.06;5130207;27;20223;-75
2023/04/22 20:42:27;;;;;;;3.33;2.50;;;;;;;12.56;100.00;99228.56;5130616;28;20197;-75
2023/04/22 20:44:55;;;;;;;4.60;2.50;;;;;;;12.51;100.00;99228.09;5130311;28;20238;-75
2023/04/22 20:47:21;;;;;;;3.50;2.43;;;;;;;12.50;100.00;99226.47;5130385;28;20205;-75
2023/04/22 20:49:48;;;;;;;4.43;2.87;;;;;;;12.42;100.00;99230.47;5131274;27;20737;-75
2023/04/22 20:52:15;;;;;;;6.43;2.77;;;;;;;12.35;100.00;99234.44;5134078;27;20216;-75
2023/04/22 20:54:42;;;;;;;4.90;2.53;;;;;;;12.23;100.00;99225.13;5134182;27;20289;-75
2023/04/22 20:57:10;;;;;;;4.47;2.50;;;;;;;12.21;100.00;99232.91;5134157;27;20206;-75
2023/04/22 20:59:37;;;;;;;7.13;2.90;;;;;;;12.28;100.00;99228.16;5134204;27;20591;-75
2023/04/22 21:02:05;;;;;;;5.03;2.70;;;;;;;12.18;100.00;99224.66;5133926;27;20249;-75
2023/04/22 21:04:32;;;;;;;5.40;2.70;;;;;;;12.12;100.00;99227.69;5133605;27;20716;-75
2023/04/22 21:07:02;;;;;;;3.40;2.43;;;;;;;12.05;100.00;99226.53;5133954;27;20620;-75
2023/04/22 21:09:29;;;;;;;3.10;2.30;;;;;;;11.99;100.00;99227.81;5134413;27;20213;-75
2023/04/22 21:11:57;;;;;;;3.97;2.87;;;;;;;11.98;100.00;99229.56;5133705;27;20206;-75
2023/04/22 21:14:25;;;;;;;7.33;3.13;;;;;;;11.96;100.00;99234.00;5134173;27;20221;-75
2023/04/22 21:17:00;;;;;;;5.17;2.87;;;;;;;11.77;100.00;99228.56;5133667;27;20283;-75
2023/04/22 21:19:29;;;;;;;3.63;2.33;;;;;;;11.70;100.00;99227.41;5133865;27;20449;-75
2023/04/22 21:21:59;;;;;;;4.47;2.37;;;;;;;11.61;100.00;99228.09;5133535;27;20250;-75
2023/04/22 21:24:27;;;;;;;3.60;2.47;;;;;;;11.61;100.00;99228.09;5133677;27;20241;-75
2023/04/22 21:26:54;;;;;;;4.17;2.70;;;;;;;11.60;100.00;99218.78;5133425;27;20667;-75
2023/04/22 21:29:22;;;;;;;5.07;2.40;;;;;;;11.56;100.00;99220.75;5133933;27;20285;-75
2023/04/22 21:31:50;;;;;;;2.87;1.97;;;;;;;11.47;100.00;99212.00;5133369;27;20228;-75
2023/04/22 21:34:17;;;;;;;3.70;2.40;;;;;;;11.46;100.00;99210.38;5133597;27;20228;-75
2023/04/22 21:36:44;;;;;;;3.80;2.60;;;;;;;11.45;100.00;99208.72;5133434;27;20265;-75
2023/04/22 21:39:11;;;;;;;5.87;2.50;;;;;;;11.44;100.00;99212.22;5133753;27;20695;-75
2023/04/22 21:41:37;;;;;;;6.23;2.90;;;;;;;11.36;100.00;99211.16;5133107;27;20200;-75
2023/04/22 21:44:05;;;;;;;3.27;2.50;;;;;;;11.27;100.00;99210.91;5133099;27;20217;-75
2023/04/22 21:46:32;;;;;;;5.23;2.37;;;;;;;11.19;100.00;99212.41;5133155;27;20716;-75
2023/04/22 21:49:00;;;;;;;4.30;2.77;;;;;;;11.15;100.00;99216.13;5133456;27;20204;-75
2023/04/22 21:51:27;;;;;;;3.40;2.57;;;;;;;11.06;100.00;99210.72;5133143;27;20446;-75
2023/04/22 21:53:53;;;;;;;3.00;2.33;;;;;;;11.06;100.00;99208.16;5133322;27;20238;-75
2023/04/22 21:56:20;;;;;;;4.07;2.80;;;;;;;11.07;100.00;99214.91;5132931;27;20200;-75
2023/04/22 21:58:47;;;;;;;6.63;3.13;;;;;;;11.02;100.00;99209.31;5133067;27;20296;-75
2023/04/22 22:01:14;;;;;;;4.20;2.63;;;;;;;11.01;100.00;99209.44;5132768;27;20204;-75
2023/04/22 22:03:41;;;;;;;4.17;2.60;;;;;;;10.98;100.00;99218.13;5132698;27;20209;-75
2023/04/22 22:06:09;;;;;;;7.30;2.40;;;;;;;11.00;100.00;99215.47;5132484;27;20731;-75
2023/04/22 22:08:37;;;;;;;4.43;2.90;;;;;;;10.77;100.00;99217.94;5132595;27;20204;-75
2023/04/22 22:11:04;;;;;;;6.37;2.93;;;;;;;10.46;100.00;99208.22;5132736;27;20283;-75
2023/04/22 22:13:32;;;;;;;8.50;3.17;;;;;;;10.45;100.00;99222.75;5132950;27;20204;-75
2023/04/22 22:15:59;;;;;;;2.93;2.27;;;;;;;10.50;100.00;99215.59;5132440;27;20265;-75
2023/04/22 22:18:26;;;;;;;4.60;2.70;;;;;;;10.49;100.00;99219.03;5133062;27;20205;-75
2023/04/22 22:20:53;;;;;;;3.50;2.77;;;;;;;10.70;100.00;99226.94;5132519;27;20453;-75
2023/04/22 22:23:21;;;;;;;6.20;2.40;;;;;;;10.65;100.00;99218.81;5132860;27;20552;-75
2023/04/22 22:25:48;;;;;;;4.83;2.97;;;;;;;10.86;100.00;99226.69;5132443;27;20228;-75
2023/04/22 22:28:15;;;;;;;7.17;2.80;;;;;;;10.90;100.00;99222.97;5132258;27;20205;-75
2023/04/22 22:30:42;;;;;;;4.07;2.50;;;;;;;10.63;100.00;99221.44;5132354;27;20297;-75
2023/04/22 22:33:10;;;;;;;4.03;2.50;;;;;;;10.68;100.00;99215.22;5132317;27;20667;-75
2023/04/22 22:35:36;;;;;;;3.17;2.60;;;;;;;10.77;100.00;99217.13;5132087;27;20223;-75
2023/04/22 22:38:03;;;;;;;5.23;2.57;;;;;;;10.82;100.00;99225.25;5132001;27;20197;-75
2023/04/22 22:40:31;;;;;;;6.53;2.20;;;;;;;10.64;100.00;99217.16;5132149;27;20321;-75
2023/04/22 22:42:58;;;;;;;2.83;2.23;;;;;;;10.61;100.00;99218.19;5132038;27;20585;-75
2023/04/22 22:45:25;;;;;;;4.53;2.50;;;;;;;10.80;100.00;99219.47;5131954;27;20226;-75
2023/04/22 22:47:52;;;;;;;2.67;2.17;;;;;;;10.86;100.00;99221.56;5131999;27;20199;-75
2023/04/22 22:50:20;;;;;;;3.33;2.13;;;;;;;10.90;100.00;99217.88;5131696;27;20222;-75
2023/04/22 22:52:47;;;;;;;5.43;2.83;;;;;;;10.75;100.00;99213.84;5132147;27;20679;-75
2023/04/22 22:55:13;;;;;;;3.57;2.13;;;;;;;10.62;100.00;99217.28;5131830;27;20227;-75
2023/04/22 22:57:44;;;;;;;5.43;2.97;;;;;;;10.74;100.00;99219.91;5131615;27;20261;-75
2023/04/22 23:00:12;;;;;;;4.57;2.70;;;;;;;10.69;100.00;99216.84;5131962;27;20220;-75
2023/04/22 23:02:39;;;;;;;18.87;5.73;;;;;;;10.67;100.00;99218.69;5131652;27;20668;-75
2023/04/22 23:05:07;;;;;;;21.10;5.57;;;;;;;10.60;100.00;99216.56;5131528;27;20235;-75
2023/04/22 23:07:34;;;;;;;13.63;4.13;;;;;;;10.63;100.00;99216.34;5131510;27;20251;-74
2023/04/22 23:10:01;;;;;;;8.33;3.03;;;;;;;10.71;100.00;99222.66;5131902;27;20999;-75
2023/04/22 23:12:28;;;;;;;3.10;2.50;;;;;;;10.69;100.00;99225.31;5130894;27;20690;-75
2023/04/22 23:14:56;;;;;;;7.70;3.50;;;;;;;10.79;100.00;99220.38;5131350;27;20212;-75
2023/04/22 23:17:23;;;;;;;6.13;2.97;;;;;;;10.65;100.00;99219.63;5131372;27;20193;-75
2023/04/22 23:19:51;;;;;;;4.83;2.50;;;;;;;10.75;100.00;99211.28;5131467;27;20284;-75
2023/04/22 23:22:18;;;;;;;5.63;2.47;;;;;;;10.80;100.00;99206.66;5131122;27;20196;-75
2023/04/22 23:24:46;;;;;;;5.57;2.63;;;;;;;10.77;100.00;99222.22;5131056;27;20220;-75
2023/04/22 23:27:13;;;;;;;10.63;3.10;;;;;;;10.51;100.00;99212.09;5130958;27;20196;-75
2023/04/22 23:29:40;;;;;;;6.73;2.60;;;;;;;10.60;100.00;99203.78;5131113;27;20244;-75
2023/04/22 23:32:14;;;;;;;7.87;3.20;;;;;;;10.65;100.00;99209.38;5130992;27;20295;-75
2023/04/22 23:34:45;;;;;;;5.67;3.70;;;;;;;10.38;100.00;99207.03;5131198;27;20714;-75
2023/04/22 23:37:14;;;;;;;3.27;2.37;;;;;;;10.28;100.00;99205.22;5131136;27;20204;-75
2023/04/22 23:39:41;;;;;;;7.90;3.10;;;;;;;10.41;100.00;99204.25;5131121;27;20225;-75
2023/04/22 23:42:08;;;;;;;7.20;2.60;;;;;;;10.49;100.00;99198.59;5130850;27;20607;-75
2023/04/22 23:44:35;;;;;;;4.90;3.00;;;;;;;10.51;100.00;99201.88;5130844;27;20212;-75
2023/04/22 23:47:02;;;;;;;6.47;2.60;;;;;;;10.51;100.00;99201.88;5130842;27;20236;-75
2023/04/22 23:49:30;;;;;;;4.83;2.87;;;;;;;10.48;100.00;99207.19;5130859;27;20730;-75
2023/04/22 23:51:57;;;;;;;5.70;2.80;;;;;;;10.45;100.00;99215.09;5130582;27;20212;-75
2023/04/22 23:54:24;;;;;;;5.33;2.97;;;;;;;10.36;100.00;99208.06;5131210;27;20216;-75
2023/04/22 23:56:51;;;;;;;5.33;2.87;;;;;;;10.37;100.00;99212.22;5130688;27;20197;-75
2023/04/22 23:59:19;;;;;;;6.60;3.00;;;;;;;10.33;100.00;99203.97;5131298;27;20217;-75
